Nalgonda, India

10:10 PM IST on August 21, 2017 (GMT +0530)
Rajiv Gandhi Internationa | | Change Station

Elev 2024 ft 17.24 °N, 78.43 °E | Updated 10 minutes ago

Overcast
Overcast
77 °F
Feels Like 77 °F
N
0
Wind Variable Wind from North

Today
High -- | Low -- °F
--% Chance of Precip.
Yesterday
High -- | Low -- °F
Precip. -- in
Pressure 29.74 in
Visibility 3.7 miles
Clouds Few 1500 ft
Mostly Cloudy 10000 ft
Dew Point 75 °F
Humidity 94%
Rainfall 0.00 in
Snow Depth Not available.
5:57 AM 6:34 PM
Waning Crescent, 0% visible
METAR VOHS 211630Z 00000KT 6000 FEW015 BKN100 25/24 Q1007 NOSIG
Pressure 29.74 in
Visibility 3.7 miles
Clouds Few 1500 ft
Mostly Cloudy 10000 ft
Dew Point 75 °F
Humidity 94%
Rainfall 0.00 in
Snow Depth Not available.
5:57 AM 6:34 PM
Waning Crescent, 0% visible
METAR VOHS 211630Z 00000KT 6000 FEW015 BKN100 25/24 Q1007 NOSIG

Get Severe Weather Alerts

Thanks for signing up!

Be on the lookout for a verification email in your inbox.

You'll start receiving the daily forecast at 6 AM.

×

10-Day Weather Forecast

No radar image for this location.
×

Almanac

Astronomy

Aug. 21, 2017 Rise Set
Actual Time
Civil Twilight
Nautical Twilight
Astronomical Twilight
Moon
Length of Visible Light
Length of Day
Tomorrow will be .
, % of the Moon is Illuminated

Today's Extremes

Country Highs Country Lows

Community

WunderPhotos

Category 6

Welcome to Category 6. This is the collective home for Weather Underground's featured writeups by Dr. Jeff Masters (right), Bob Henson (left), Chris Burt, and other regular contributors.

Nearby

Air Quality

  Air Quality AQ Index Pollutant
Not available.

Snow Depth

Station Depth Elevation

Earthquake Activity

City Distance Mag. Time & Date
Minimum magnitude displayed is 2.5.

Coastal Water Temperatures

Place Temperature

Stations

Nearby Weather Stations

Station Location Temp. Windchill Dew Point Humidity Wind Precip. Elev Updated Type